Time;durP1;ratioP1;P1;durP2;ratioP2;P2;SDS_P1;SDS_P2;PMS_P1;PMS_P2;Temp;Humidity;BMP_temperature;BMP_pressure;BME280_temperature;BME280_humidity;BME280_pressure;Samples;Min_cycle;Max_cycle;Signal;HPM_P1;HPM_P2
2022/11/27 00:02:26;;;;;;;8.00;4.47;;;15.80;70.50;;;;;;10445063;28;20029;-58
2022/11/27 00:07:27;;;;;;;4.30;2.00;;;15.80;70.40;;;;;;10444726;28;20116;-59
2022/11/27 00:12:28;;;;;;;3.88;1.75;;;15.90;70.30;;;;;;10445868;28;20025;-59
2022/11/27 00:17:28;;;;;;;3.92;1.80;;;15.90;70.20;;;;;;10446058;28;20104;-59
2022/11/27 00:22:29;;;;;;;7.72;2.53;;;15.80;70.20;;;;;;10444539;28;20059;-59
2022/11/27 00:27:29;;;;;;;5.05;2.17;;;15.80;70.40;;;;;;10449197;28;20053;-59
2022/11/27 00:32:30;;;;;;;3.25;1.80;;;15.80;70.40;;;;;;10452339;28;20553;-58
2022/11/27 00:37:31;;;;;;;6.47;1.77;;;15.80;70.20;;;;;;10452683;28;20441;-58
2022/11/27 00:42:31;;;;;;;4.10;1.98;;;15.80;70.30;;;;;;10452064;28;20104;-59
2022/11/27 00:47:32;;;;;;;2.67;1.75;;;15.80;70.40;;;;;;10485250;28;20029;-59
2022/11/27 00:52:33;;;;;;;3.30;1.92;;;15.80;70.20;;;;;;10452718;28;20159;-59
2022/11/27 00:57:33;;;;;;;2.92;1.52;;;15.80;70.20;;;;;;10451044;28;20074;-59
2022/11/27 01:02:34;;;;;;;3.63;1.60;;;15.80;70.30;;;;;;10451054;28;20707;-59
2022/11/27 01:07:35;;;;;;;3.28;1.67;;;15.80;70.30;;;;;;10452372;28;20085;-60
2022/11/27 01:12:35;;;;;;;4.82;2.00;;;15.80;70.10;;;;;;10450675;28;20123;-59
2022/11/27 01:17:36;;;;;;;7.28;2.45;;;15.80;70.10;;;;;;10450097;28;20104;-58
2022/11/27 01:22:37;;;;;;;3.65;2.00;;;15.80;70.00;;;;;;10450183;28;20124;-59
2022/11/27 01:27:37;;;;;;;2.95;1.52;;;15.80;70.00;;;;;;10450090;28;20506;-59
2022/11/27 01:32:38;;;;;;;3.95;1.58;;;15.80;70.10;;;;;;10450767;28;20124;-59
2022/11/27 01:37:39;;;;;;;2.13;1.50;;;15.80;70.10;;;;;;10448862;28;20139;-58
2022/11/27 01:42:39;;;;;;;3.75;1.85;;;15.80;70.00;;;;;;10450729;28;20075;-59
2022/11/27 01:47:50;;;;;;;4.13;1.98;;;15.90;69.60;;;;;;10450788;28;20074;-58
2022/11/27 01:52:56;;;;;;;2.85;1.55;;;15.90;69.60;;;;;;10440678;28;20025;-59
2022/11/27 01:58:07;;;;;;;3.40;1.90;;;15.90;69.80;;;;;;10443236;28;20021;-59
2022/11/27 02:03:07;;;;;;;3.28;1.63;;;15.80;69.80;;;;;;10448480;28;20032;-59
2022/11/27 02:08:11;;;;;;;3.60;2.00;;;15.90;69.70;;;;;;10448881;28;20024;-58
2022/11/27 02:13:16;;;;;;;5.15;2.60;;;15.80;69.70;;;;;;10448293;28;20613;-59
2022/11/27 02:18:37;;;;;;;2.55;1.55;;;15.80;69.80;;;;;;10448179;28;20112;-59
2022/11/27 02:24:01;;;;;;;3.78;2.10;;;15.90;69.60;;;;;;10449299;28;20037;-58
2022/11/27 02:29:11;;;;;;;2.78;1.55;;;16.00;69.30;;;;;;10447647;28;20028;-59
2022/11/27 02:34:34;;;;;;;;;;;16.00;69.10;;;;;;10447991;28;20049;-59
2022/11/27 02:40:16;;;;;;;2.97;1.60;;;15.90;69.20;;;;;;10448726;28;19908;-58
2022/11/27 02:45:23;;;;;;;2.63;1.30;;;15.90;69.20;;;;;;10430598;28;20756;-59
2022/11/27 02:50:28;;;;;;;2.92;1.55;;;16.00;69.20;;;;;;10447216;28;20017;-59
2022/11/27 02:55:32;;;;;;;3.25;2.22;;;15.90;69.30;;;;;;10446010;28;20496;-59
2022/11/27 03:00:34;;;;;;;3.90;2.55;;;16.00;69.00;;;;;;10434792;28;20380;-59
2022/11/27 03:05:41;;;;;;;3.97;1.60;;;16.00;69.10;;;;;;10429993;28;20428;-59
2022/11/27 03:11:09;;;;;;;2.38;1.58;;;15.90;69.10;;;;;;10445967;28;20494;-59
2022/11/27 03:16:24;;;;;;;3.67;1.95;;;16.00;68.90;;;;;;10445482;28;20060;-59
2022/11/27 03:21:37;;;;;;;3.13;1.40;;;15.90;68.80;;;;;;10445969;28;20408;-59
2022/11/27 03:26:39;;;;;;;4.18;2.60;;;15.90;68.90;;;;;;10445129;28;20515;-59
2022/11/27 03:31:40;;;;;;;3.72;1.77;;;15.90;69.00;;;;;;10445355;28;20048;-59
2022/11/27 03:36:41;;;;;;;4.00;1.77;;;15.90;68.80;;;;;;10445248;28;20460;-59
2022/11/27 03:42:04;;;;;;;3.85;1.50;;;15.90;68.80;;;;;;10445218;28;20468;-58
2022/11/27 03:47:55;;;;;;;3.22;1.92;;;15.90;68.90;;;;;;10446329;28;20475;-59
2022/11/27 03:53:05;;;;;;;2.42;1.35;;;15.90;68.80;;;;;;10445913;28;20021;-59
2022/11/27 03:58:18;;;;;;;2.75;1.50;;;15.90;68.80;;;;;;10446210;28;20021;-59
2022/11/27 04:03:28;;;;;;;4.05;1.60;;;15.90;68.80;;;;;;10450330;28;20484;-59
2022/11/27 04:08:28;;;;;;;2.80;1.60;;;15.90;68.70;;;;;;10453009;28;20033;-58
2022/11/27 04:13:29;;;;;;;3.22;1.40;;;15.90;68.80;;;;;;10452973;28;20031;-59
2022/11/27 04:18:30;;;;;;;2.05;1.20;;;15.90;68.80;;;;;;10452709;28;20060;-58
2022/11/27 04:23:30;;;;;;;2.85;1.40;;;15.90;68.80;;;;;;10435798;28;20029;-58
2022/11/27 04:28:31;;;;;;;2.92;1.52;;;15.90;68.90;;;;;;10452046;28;20051;-59
2022/11/27 04:33:32;;;;;;;3.60;1.73;;;16.00;68.70;;;;;;10435408;28;20493;-58
2022/11/27 04:38:33;;;;;;;2.97;1.30;;;15.90;68.80;;;;;;10452887;28;20075;-58
2022/11/27 04:43:33;;;;;;;3.05;1.52;;;15.90;68.80;;;;;;10434941;28;20079;-58
2022/11/27 04:48:34;;;;;;;3.30;1.85;;;15.90;68.70;;;;;;10451450;28;20166;-59
2022/11/27 04:53:35;;;;;;;2.10;1.40;;;15.90;68.80;;;;;;10449106;28;20540;-59
2022/11/27 04:58:35;;;;;;;4.10;1.58;;;15.90;68.80;;;;;;10451360;28;20431;-59
2022/11/27 05:03:37;;;;;;;2.90;1.45;;;15.90;68.70;;;;;;10447031;28;20021;-59
2022/11/27 05:08:38;;;;;;;4.18;1.42;;;15.90;68.80;;;;;;10449253;28;20017;-59
2022/11/27 05:13:39;;;;;;;2.20;1.25;;;15.90;68.80;;;;;;10448816;28;20440;-59
2022/11/27 05:18:40;;;;;;;2.10;1.20;;;15.90;68.70;;;;;;10449221;28;20033;-59
2022/11/27 05:23:40;;;;;;;4.35;1.38;;;15.90;68.90;;;;;;10449850;28;20103;-58
2022/11/27 05:28:41;;;;;;;3.90;1.48;;;15.90;68.70;;;;;;10450706;28;20063;-59
2022/11/27 05:33:41;;;;;;;3.15;1.33;;;15.90;68.70;;;;;;10463336;28;20512;-59
2022/11/27 05:38:42;;;;;;;2.78;1.60;;;15.90;68.80;;;;;;10432668;28;20065;-60
2022/11/27 05:43:43;;;;;;;3.88;1.50;;;15.90;68.60;;;;;;10452056;28;20108;-59
2022/11/27 05:48:44;;;;;;;3.17;1.35;;;15.90;68.60;;;;;;10447626;28;20021;-58
2022/11/27 05:53:45;;;;;;;2.65;1.40;;;15.90;68.70;;;;;;10431300;28;20033;-61
2022/11/27 05:58:47;;;;;;;2.55;1.42;;;15.90;68.60;;;;;;10442704;28;20028;-59
2022/11/27 06:03:47;;;;;;;2.60;1.58;;;15.90;68.70;;;;;;10448179;28;20025;-58
2022/11/27 06:08:48;;;;;;;3.22;1.70;;;15.90;68.60;;;;;;10449186;28;20103;-58
2022/11/27 06:13:49;;;;;;;2.33;1.10;;;15.90;68.50;;;;;;10447638;28;20128;-62
2022/11/27 06:18:53;;;;;;;3.58;1.73;;;15.90;68.60;;;;;;10448502;28;20524;-61
2022/11/27 06:23:55;;;;;;;8.15;1.88;;;16.00;68.90;;;;;;10450776;28;20028;-62
2022/11/27 06:28:57;;;;;;;21.67;3.42;;;16.20;69.00;;;;;;10431607;28;20100;-63
2022/11/27 06:33:59;;;;;;;7.03;1.85;;;16.30;69.10;;;;;;10450527;28;20045;-63
2022/11/27 06:39:01;;;;;;;9.20;2.28;;;16.30;70.00;;;;;;10447326;28;20083;-63
2022/11/27 06:44:03;;;;;;;6.95;2.47;;;16.20;70.90;;;;;;10446637;28;20025;-63
2022/11/27 06:49:03;;;;;;;8.77;2.97;;;16.20;71.00;;;;;;10447380;28;20094;-62
2022/11/27 06:54:04;;;;;;;16.52;2.58;;;16.10;71.10;;;;;;10436226;28;20540;-62
2022/11/27 06:59:05;;;;;;;16.58;3.80;;;16.20;71.10;;;;;;10448280;28;20013;-63
2022/11/27 07:04:06;;;;;;;11.77;2.83;;;16.20;71.00;;;;;;10447846;28;20095;-62
2022/11/27 07:09:07;;;;;;;8.20;2.05;;;16.10;71.20;;;;;;10445674;28;20100;-62
2022/11/27 07:14:09;;;;;;;16.90;3.60;;;16.00;71.40;;;;;;10445855;28;20025;-65
2022/11/27 07:19:10;;;;;;;15.05;2.60;;;15.90;71.00;;;;;;10444034;28;20024;-63
2022/11/27 07:24:10;;;;;;;11.52;2.85;;;15.70;71.00;;;;;;10442338;28;20848;-62
2022/11/27 07:29:11;;;;;;;15.55;3.30;;;15.70;70.90;;;;;;10429874;28;20590;-63
2022/11/27 07:34:12;;;;;;;14.65;3.47;;;15.70;71.00;;;;;;10446685;28;20128;-63
2022/11/27 07:39:12;;;;;;;15.27;2.95;;;15.60;71.00;;;;;;10428801;28;20048;-63
2022/11/27 07:44:13;;;;;;;8.38;2.83;;;15.60;71.00;;;;;;10448557;28;20524;-63
2022/11/27 07:49:14;;;;;;;8.45;2.55;;;15.60;71.10;;;;;;10446711;28;20116;-62
2022/11/27 07:54:14;;;;;;;7.07;2.42;;;15.60;71.10;;;;;;10443442;28;20048;-63
2022/11/27 07:59:15;;;;;;;13.63;3.85;;;15.60;71.00;;;;;;10448081;28;20020;-63
2022/11/27 08:04:15;;;;;;;8.93;3.25;;;15.60;70.90;;;;;;10450747;28;20674;-63
2022/11/27 08:09:16;;;;;;;10.68;2.60;;;15.60;70.70;;;;;;10481644;28;20056;-63
2022/11/27 08:14:18;;;;;;;6.93;2.35;;;15.60;70.60;;;;;;10448661;28;20045;-63
2022/11/27 08:19:18;;;;;;;6.05;1.85;;;15.70;70.50;;;;;;10448334;28;20025;-63
2022/11/27 08:24:19;;;;;;;5.68;2.20;;;15.70;70.10;;;;;;10449821;28;20048;-63
2022/11/27 08:29:20;;;;;;;7.70;2.75;;;15.70;69.90;;;;;;10449354;28;20060;-63
2022/11/27 08:34:20;;;;;;;4.68;1.90;;;15.80;69.80;;;;;;10448020;28;20132;-63
2022/11/27 08:39:21;;;;;;;6.47;2.00;;;15.80;69.60;;;;;;10446932;28;20498;-63
2022/11/27 08:44:22;;;;;;;6.57;2.20;;;15.80;69.80;;;;;;10446291;28;20024;-62
2022/11/27 08:49:22;;;;;;;10.00;2.03;;;15.90;70.00;;;;;;10451165;28;20047;-62
2022/11/27 08:54:23;;;;;;;15.52;2.50;;;15.90;69.60;;;;;;10456842;28;20043;-62
2022/11/27 08:59:24;;;;;;;17.25;4.30;;;15.90;70.70;;;;;;10455081;28;20024;-62
2022/11/27 09:04:24;;;;;;;18.20;5.53;;;15.80;71.70;;;;;;10456096;28;20405;-63
2022/11/27 09:09:25;;;;;;;22.83;3.83;;;15.70;71.80;;;;;;10454608;28;20021;-62
2022/11/27 09:14:26;;;;;;;28.05;5.25;;;15.70;72.60;;;;;;10452969;28;20052;-62
2022/11/27 09:19:27;;;;;;;17.92;4.40;;;15.60;73.00;;;;;;10450735;28;20104;-62
2022/11/27 09:24:27;;;;;;;30.40;6.13;;;15.60;74.30;;;;;;10451529;28;20115;-61
2022/11/27 09:29:28;;;;;;;30.45;5.43;;;15.60;74.50;;;;;;10450474;28;20688;-62
2022/11/27 09:34:29;;;;;;;18.23;4.38;;;15.60;74.50;;;;;;10449029;28;20504;-61
2022/11/27 09:39:32;;;;;;;16.27;3.88;;;15.60;73.00;;;;;;10452590;28;20456;-61
2022/11/27 09:44:45;;;;;;;15.60;3.50;;;15.80;72.50;;;;;;10446977;28;20480;-62
2022/11/27 09:50:04;;;;;;;12.15;4.00;;;15.80;72.40;;;;;;10453163;28;20033;-60
2022/11/27 09:55:40;;;;;;;20.50;4.35;;;15.90;73.20;;;;;;10463993;28;20037;-61
2022/11/27 10:00:44;;;;;;;11.80;3.65;;;15.80;72.50;;;;;;10447313;28;20013;-61
2022/11/27 10:06:20;;;;;;;19.67;4.88;;;15.90;72.20;;;;;;10451470;28;20396;-65
2022/11/27 10:11:35;;;;;;;18.88;4.05;;;16.10;72.10;;;;;;10448491;28;20415;-62
2022/11/27 10:16:41;;;;;;;13.35;4.97;;;16.10;72.70;;;;;;10434567;28;20131;-61
2022/11/27 10:21:59;;;;;;;16.33;4.47;;;16.10;74.30;;;;;;10452976;28;20060;-60
2022/11/27 10:27:02;;;;;;;15.70;4.88;;;16.40;72.90;;;;;;10452773;28;20071;-61
2022/11/27 10:32:19;;;;;;;19.25;3.85;;;16.40;72.60;;;;;;10450584;28;20043;-62
2022/11/27 10:37:42;;;;;;;20.20;4.47;;;16.10;73.30;;;;;;10449928;28;20075;-61
2022/11/27 10:43:12;;;;;;;18.15;4.40;;;15.90;73.70;;;;;;10448130;28;20021;-62
2022/11/27 10:48:13;;;;;;;18.00;3.92;;;15.80;73.80;;;;;;10450562;28;20056;-61
2022/11/27 10:53:31;;;;;;;14.63;5.40;;;15.80;73.90;;;;;;10463627;28;20090;-62
2022/11/27 10:58:55;;;;;;;16.70;4.32;;;15.70;73.90;;;;;;10449411;28;20033;-61
2022/11/27 11:04:12;;;;;;;19.63;4.85;;;15.70;73.90;;;;;;10426895;28;20027;-61
2022/11/27 11:09:31;;;;;;;13.63;5.15;;;15.70;73.80;;;;;;10439268;28;20063;-64
2022/11/27 11:14:32;;;;;;;18.48;5.38;;;15.60;73.70;;;;;;10443765;28;20472;-64
2022/11/27 11:19:36;;;;;;;20.05;4.85;;;15.90;74.40;;;;;;10446526;28;20101;-66
2022/11/27 11:24:42;;;;;;;24.25;4.53;;;16.00;74.70;;;;;;10445162;28;20057;-63
2022/11/27 11:29:59;;;;;;;12.05;4.25;;;16.10;75.10;;;;;;10446230;28;20021;-62
2022/11/27 11:35:08;;;;;;;19.77;4.82;;;16.00;74.30;;;;;;10445209;28;20615;-59
2022/11/27 11:40:12;;;;;;;16.27;4.43;;;15.90;74.00;;;;;;10444403;28;20056;-55
2022/11/27 11:45:12;;;;;;;14.25;4.75;;;15.80;73.90;;;;;;10444549;28;20029;-56
2022/11/27 11:50:42;;;;;;;11.40;4.80;;;15.70;74.10;;;;;;10444075;28;20368;-55
2022/11/27 11:56:04;;;;;;;8.00;4.15;;;15.60;74.20;;;;;;10442755;28;20037;-53
2022/11/27 12:01:37;;;;;;;11.02;4.57;;;15.50;74.20;;;;;;10443098;28;20018;-55
2022/11/27 12:07:07;;;;;;;12.00;4.15;;;15.50;74.20;;;;;;10443357;28;20102;-55
2022/11/27 12:12:33;;;;;;;7.60;4.68;;;15.50;73.80;;;;;;10431994;28;20529;-54
2022/11/27 12:18:02;;;;;;;10.18;3.83;;;15.60;73.50;;;;;;10446070;28;20021;-54
2022/11/27 12:24:05;;;;;;;6.90;3.65;;;15.60;73.10;;;;;;10447844;28;20031;-56
2022/11/27 12:29:22;;;;;;;5.75;3.03;;;15.60;72.80;;;;;;10285081;28;20089;-56
2022/11/27 12:34:54;;;;;;;9.80;3.40;;;15.70;72.60;;;;;;10435797;28;20423;-55
2022/11/27 12:40:30;;;;;;;9.70;3.47;;;15.80;72.10;;;;;;10453363;28;20021;-52
2022/11/27 12:45:52;;;;;;;11.60;4.78;;;15.80;72.00;;;;;;10437016;28;20412;-54
2022/11/27 12:50:59;;;;;;;8.77;2.88;;;15.90;71.60;;;;;;10451994;28;20021;-56
2022/11/27 12:56:42;;;;;;;7.50;3.03;;;15.90;71.50;;;;;;10451085;28;20106;-56
2022/11/27 13:01:53;;;;;;;5.90;2.65;;;15.80;71.50;;;;;;10357632;28;20043;-55
2022/11/27 13:07:09;;;;;;;7.57;2.60;;;15.90;71.30;;;;;;10435252;28;20402;-55
2022/11/27 13:12:31;;;;;;;5.45;3.00;;;15.90;71.20;;;;;;10451225;28;20437;-55
2022/11/27 13:17:41;;;;;;;4.95;2.40;;;15.90;71.10;;;;;;10450491;28;20017;-56
2022/11/27 13:22:42;;;;;;;5.78;2.65;;;15.90;70.80;;;;;;10451792;28;20029;-55
2022/11/27 13:27:48;;;;;;;8.02;2.78;;;16.00;70.70;;;;;;10434199;28;20017;-56
2022/11/27 13:32:58;;;;;;;7.75;3.13;;;15.90;70.70;;;;;;10450917;28;20499;-54
2022/11/27 13:38:22;;;;;;;5.88;3.25;;;15.90;70.70;;;;;;10449483;28;20049;-55
2022/11/27 13:43:42;;;;;;;4.93;2.58;;;15.80;70.90;;;;;;10450487;28;20534;-56
2022/11/27 13:49:04;;;;;;;4.63;2.45;;;15.80;70.90;;;;;;10445611;28;20036;-56
2022/11/27 13:54:13;;;;;;;4.97;2.65;;;15.90;70.60;;;;;;10435932;28;20025;-55
2022/11/27 13:59:22;;;;;;;;;;;15.80;70.70;;;;;;10459392;28;20021;-57
2022/11/27 14:04:27;;;;;;;6.97;2.90;;;15.80;71.10;;;;;;10464445;28;19912;-57
2022/11/27 14:09:51;;;;;;;7.05;3.45;;;15.90;71.10;;;;;;10448138;28;20024;-57
2022/11/27 14:15:15;;;;;;;8.20;2.90;;;16.10;71.20;;;;;;10452046;28;20040;-57
2022/11/27 14:20:16;;;;;;;11.85;3.58;;;16.40;70.60;;;;;;10453266;28;20105;-55
2022/11/27 14:25:32;;;;;;;5.90;3.00;;;16.60;69.30;;;;;;10451795;28;20045;-57
2022/11/27 14:30:46;;;;;;;8.07;2.65;;;16.70;69.30;;;;;;10451537;28;20488;-56
2022/11/27 14:35:56;;;;;;;6.93;2.90;;;16.70;68.70;;;;;;10452506;28;20488;-57
2022/11/27 14:41:17;;;;;;;6.25;2.65;;;16.80;68.40;;;;;;10451526;28;20023;-55
2022/11/27 14:46:20;;;;;;;6.65;2.40;;;16.70;68.50;;;;;;10437995;28;20025;-58
2022/11/27 14:51:27;;;;;;;5.80;2.47;;;16.80;68.30;;;;;;10444631;28;20033;-54
2022/11/27 14:56:36;;;;;;;4.65;1.92;;;16.80;68.10;;;;;;10452869;28;20033;-57
2022/11/27 15:01:37;;;;;;;5.13;2.42;;;16.70;68.20;;;;;;10443023;28;20074;-56
2022/11/27 15:06:45;;;;;;;6.57;2.78;;;16.70;68.80;;;;;;10462855;28;20575;-55
2022/11/27 15:11:58;;;;;;;6.95;2.05;;;16.70;68.10;;;;;;10448951;28;20056;-56
2022/11/27 15:16:58;;;;;;;5.55;2.95;;;16.80;68.00;;;;;;10447977;28;20087;-55
2022/11/27 15:22:00;;;;;;;6.55;2.20;;;16.80;68.20;;;;;;10444008;28;20028;-56
2022/11/27 15:27:30;;;;;;;6.32;2.30;;;16.70;68.60;;;;;;10454610;28;20021;-57
2022/11/27 15:32:50;;;;;;;8.02;2.75;;;16.70;68.30;;;;;;10458931;28;20048;-55
2022/11/27 15:37:53;;;;;;;5.15;2.63;;;16.80;67.90;;;;;;10445919;28;20064;-57
2022/11/27 15:42:53;;;;;;;8.25;3.20;;;16.90;67.70;;;;;;10447825;28;20025;-56
2022/11/27 15:48:00;;;;;;;4.72;2.28;;;17.00;68.80;;;;;;10448507;28;20036;-56
2022/11/27 15:53:01;;;;;;;7.00;2.00;;;17.00;68.50;;;;;;10441800;28;20484;-56
2022/11/27 15:58:01;;;;;;;7.32;2.15;;;17.00;69.20;;;;;;10446563;28;20112;-57
2022/11/27 16:03:02;;;;;;;7.78;2.50;;;16.90;69.20;;;;;;10460358;28;20028;-58
2022/11/27 16:08:04;;;;;;;8.05;2.50;;;16.90;69.70;;;;;;10460998;28;20028;-55
2022/11/27 16:13:05;;;;;;;8.85;2.53;;;16.90;69.40;;;;;;10461065;28;20072;-54
2022/11/27 16:18:06;;;;;;;7.07;2.60;;;16.90;69.90;;;;;;10487338;28;20021;-55
2022/11/27 16:23:06;;;;;;;4.60;2.05;;;16.90;70.10;;;;;;10454804;28;20452;-56
2022/11/27 16:28:07;;;;;;;7.22;2.30;;;16.90;70.20;;;;;;10463028;28;20048;-57
2022/11/27 16:33:08;;;;;;;6.25;2.13;;;16.80;70.30;;;;;;10461453;28;20131;-56
2022/11/27 16:38:09;;;;;;;6.60;2.90;;;16.80;70.30;;;;;;10418144;28;20044;-55
2022/11/27 16:43:10;;;;;;;6.40;2.65;;;17.00;69.80;;;;;;10427177;28;20155;-57
2022/11/27 16:48:10;;;;;;;12.70;3.00;;;16.90;69.80;;;;;;10439256;28;20013;-56
2022/11/27 16:53:12;;;;;;;19.27;3.00;;;16.80;69.80;;;;;;10434114;28;20053;-55
2022/11/27 16:58:12;;;;;;;12.63;3.35;;;16.90;69.40;;;;;;10437026;28;20517;-54
2022/11/27 17:03:13;;;;;;;48.67;22.83;;;16.90;69.50;;;;;;10429238;28;20116;-53
2022/11/27 17:08:14;;;;;;;38.13;22.95;;;16.80;69.20;;;;;;10428411;28;20057;-52
2022/11/27 17:13:14;;;;;;;36.15;17.42;;;16.70;69.60;;;;;;10406147;28;20116;-54
2022/11/27 17:18:15;;;;;;;29.52;14.73;;;16.80;70.20;;;;;;10424805;28;20379;-55
2022/11/27 17:23:16;;;;;;;27.45;14.40;;;17.00;70.20;;;;;;10423941;28;20024;-56
2022/11/27 17:28:17;;;;;;;30.40;16.70;;;17.00;70.70;;;;;;10427769;28;20096;-54
2022/11/27 17:33:17;;;;;;;36.88;14.38;;;17.00;71.30;;;;;;10418170;28;20037;-54
2022/11/27 17:38:19;;;;;;;32.70;13.60;;;16.90;71.30;;;;;;10454684;28;20045;-55
2022/11/27 17:43:21;;;;;;;30.40;12.93;;;17.00;71.00;;;;;;10438063;28;20060;-54
2022/11/27 17:48:23;;;;;;;26.48;11.80;;;16.90;71.30;;;;;;10446287;28;20021;-55
2022/11/27 17:53:24;;;;;;;26.67;11.13;;;16.90;71.60;;;;;;10427495;28;20033;-54
2022/11/27 17:58:24;;;;;;;27.02;10.95;;;16.70;71.00;;;;;;10418628;28;20465;-55
2022/11/27 18:03:27;;;;;;;23.38;11.52;;;16.60;71.30;;;;;;10415826;28;20048;-55
2022/11/27 18:08:28;;;;;;;24.48;10.73;;;16.60;71.40;;;;;;10412722;28;20021;-55
2022/11/27 18:13:31;;;;;;;18.48;10.98;;;16.50;71.40;;;;;;10441444;28;20037;-55
2022/11/27 18:18:32;;;;;;;22.02;10.32;;;16.50;71.70;;;;;;10404401;28;20018;-55
2022/11/27 18:23:33;;;;;;;20.75;9.50;;;16.40;71.70;;;;;;10403183;28;20449;-55
2022/11/27 18:28:34;;;;;;;22.13;10.27;;;16.30;71.80;;;;;;10393914;28;20396;-56
2022/11/27 18:33:35;;;;;;;18.38;12.02;;;16.30;71.90;;;;;;10400273;28;20030;-55
2022/11/27 18:38:38;;;;;;;26.88;13.80;;;16.30;72.50;;;;;;10429964;28;20067;-53
2022/11/27 18:43:39;;;;;;;20.88;12.90;;;16.30;72.90;;;;;;10435195;28;20025;-54
2022/11/27 18:48:42;;;;;;;19.85;13.20;;;16.20;72.30;;;;;;10406973;28;20022;-55
2022/11/27 18:53:43;;;;;;;24.67;14.25;;;16.20;72.30;;;;;;10430309;28;20099;-55
2022/11/27 18:58:45;;;;;;;19.02;12.60;;;16.10;72.50;;;;;;10398689;28;20096;-55
2022/11/27 19:03:46;;;;;;;18.27;12.05;;;16.00;72.60;;;;;;10416480;28;20017;-53
2022/11/27 19:08:47;;;;;;;16.85;13.30;;;16.00;72.70;;;;;;10411909;28;20109;-54
2022/11/27 19:13:50;;;;;;;17.55;12.68;;;16.00;72.80;;;;;;10426088;28;20072;-55
2022/11/27 19:18:51;;;;;;;16.65;11.75;;;15.90;72.70;;;;;;10364581;28;20149;-55
2022/11/27 19:23:53;;;;;;;16.63;11.73;;;15.90;72.70;;;;;;10362288;28;20033;-56
2022/11/27 19:28:57;;;;;;;15.95;12.27;;;15.80;72.60;;;;;;10367094;28;20030;-55
2022/11/27 19:34:00;;;;;;;19.48;12.52;;;15.80;72.60;;;;;;10408278;28;20111;-53
2022/11/27 19:39:06;;;;;;;15.55;12.70;;;15.80;72.60;;;;;;10390039;28;20374;-55
2022/11/27 19:44:11;;;;;;;14.05;11.70;;;15.80;72.60;;;;;;10365942;28;20065;-55
2022/11/27 19:49:16;;;;;;;14.73;11.75;;;15.70;72.60;;;;;;10366670;28;20656;-55
2022/11/27 19:54:18;;;;;;;14.45;11.75;;;15.70;72.60;;;;;;10362232;28;20026;-54
2022/11/27 19:59:18;;;;;;;16.58;10.35;;;15.70;72.50;;;;;;10350382;28;20022;-54
2022/11/27 20:04:19;;;;;;;13.88;10.95;;;15.70;72.50;;;;;;10374262;28;20022;-54
2022/11/27 20:09:20;;;;;;;13.57;11.30;;;15.70;72.50;;;;;;10344261;28;20156;-54
2022/11/27 20:14:21;;;;;;;12.25;9.27;;;15.60;72.40;;;;;;10371354;28;20034;-55
2022/11/27 20:19:22;;;;;;;11.75;9.73;;;15.60;72.60;;;;;;10401404;28;20101;-55
2022/11/27 20:24:22;;;;;;;14.98;10.32;;;15.60;72.10;;;;;;10386860;28;20561;-56
2022/11/27 20:29:23;;;;;;;12.18;9.73;;;15.70;72.10;;;;;;10401451;28;20108;-54
2022/11/27 20:34:24;;;;;;;12.88;8.15;;;15.70;72.00;;;;;;10398521;28;20220;-59
2022/11/27 20:39:27;;;;;;;12.32;8.35;;;15.70;72.00;;;;;;10389239;28;20025;-54
2022/11/27 20:44:27;;;;;;;13.65;10.02;;;15.70;71.90;;;;;;10395369;28;20021;-56
2022/11/27 20:49:28;;;;;;;12.50;8.57;;;15.60;71.90;;;;;;10395655;28;20461;-55
2022/11/27 20:54:29;;;;;;;13.52;8.93;;;15.70;71.90;;;;;;10375710;28;20040;-53
2022/11/27 20:59:30;;;;;;;10.57;7.60;;;15.70;71.70;;;;;;10397256;28;20080;-55
2022/11/27 21:04:30;;;;;;;10.77;8.05;;;15.70;71.60;;;;;;10383976;28;20044;-55
2022/11/27 21:09:32;;;;;;;10.60;7.95;;;15.80;72.00;;;;;;10365053;28;20847;-54
2022/11/27 21:14:32;;;;;;;10.25;8.18;;;15.80;71.10;;;;;;10370424;28;20053;-55
2022/11/27 21:19:33;;;;;;;10.52;7.53;;;15.90;71.00;;;;;;10372143;28;20036;-55
2022/11/27 21:24:34;;;;;;;12.75;7.45;;;15.90;70.90;;;;;;10406901;28;20120;-54
2022/11/27 21:29:34;;;;;;;8.85;7.90;;;15.80;71.00;;;;;;10372149;28;20105;-54
2022/11/27 21:34:35;;;;;;;9.93;6.45;;;15.80;70.80;;;;;;10396443;28;20111;-55
2022/11/27 21:39:37;;;;;;;10.05;7.57;;;15.90;70.70;;;;;;10409450;28;20100;-55
2022/11/27 21:44:40;;;;;;;7.65;5.93;;;15.90;71.20;;;;;;10400372;28;20022;-56
2022/11/27 21:49:41;;;;;;;9.80;6.47;;;15.90;70.70;;;;;;10368532;28;20026;-55
2022/11/27 21:54:42;;;;;;;9.63;6.30;;;15.80;70.60;;;;;;10403082;28;20037;-54
2022/11/27 21:59:43;;;;;;;10.10;5.97;;;15.80;70.70;;;;;;10409301;28;20029;-55
2022/11/27 22:04:44;;;;;;;10.15;5.70;;;15.80;70.60;;;;;;10369940;28;20093;-55
2022/11/27 22:09:44;;;;;;;8.75;4.95;;;15.80;70.50;;;;;;10397586;28;20116;-52
2022/11/27 22:14:47;;;;;;;8.88;5.32;;;15.90;70.40;;;;;;10368171;28;20152;-55
2022/11/27 22:19:48;;;;;;;10.15;7.63;;;15.90;70.40;;;;;;10366072;28;20079;-55
2022/11/27 22:24:49;;;;;;;8.60;5.70;;;15.80;70.30;;;;;;10370729;28;20092;-52
2022/11/27 22:29:49;;;;;;;7.80;5.53;;;15.80;70.30;;;;;;10383170;28;20065;-54
2022/11/27 22:34:50;;;;;;;8.68;4.95;;;15.80;70.40;;;;;;10393084;28;20136;-55
2022/11/27 22:39:51;;;;;;;6.22;4.55;;;15.80;70.40;;;;;;10367387;28;20377;-55
2022/11/27 22:44:52;;;;;;;6.18;3.97;;;15.90;70.20;;;;;;10357416;28;20665;-53
2022/11/27 22:49:52;;;;;;;8.93;4.60;;;15.90;69.90;;;;;;10367228;28;20060;-54
2022/11/27 22:54:53;;;;;;;6.90;5.05;;;15.90;69.90;;;;;;10406606;28;20057;-55
2022/11/27 22:59:54;;;;;;;5.60;4.15;;;15.90;69.90;;;;;;10405354;28;20021;-56
2022/11/27 23:04:54;;;;;;;5.80;3.50;;;15.90;70.00;;;;;;10366364;28;20469;-54
2022/11/27 23:09:55;;;;;;;7.93;4.10;;;15.90;69.90;;;;;;10381815;28;20029;-54
2022/11/27 23:14:55;;;;;;;5.53;4.32;;;15.90;69.90;;;;;;10383370;28;20037;-54
2022/11/27 23:19:56;;;;;;;6.95;4.00;;;15.80;70.00;;;;;;10400544;28;20054;-55
2022/11/27 23:24:57;;;;;;;6.10;3.90;;;15.80;70.00;;;;;;10353093;28;20053;-53
2022/11/27 23:29:57;;;;;;;6.38;4.45;;;15.90;69.90;;;;;;10361329;28;20452;-54
2022/11/27 23:34:58;;;;;;;5.43;3.80;;;15.90;69.70;;;;;;10363796;28;20089;-55
2022/11/27 23:39:59;;;;;;;4.65;3.35;;;16.00;69.50;;;;;;10382255;28;20520;-55
2022/11/27 23:44:59;;;;;;;5.82;3.28;;;16.00;69.50;;;;;;10402924;28;20057;-55
2022/11/27 23:50:00;;;;;;;6.45;3.75;;;15.90;69.70;;;;;;10396487;28;20117;-55
2022/11/27 23:55:01;;;;;;;5.10;3.40;;;15.90;69.60;;;;;;10376131;28;20038;-56
